Holmes Beach, Florida
Current Conditions -  °F | °C
As of 6:53 AM on Sunday 23 Nov 2014 (Local Time) from KSRQ Reporting Station
Overcast Overcast  
Wind Chill: 73°   Ceiling: 1100
Heat Index: 73°   Visibility: 10mi
Dew Point: 71°   Wind: 14mph
Humidity: 93%   Direction: 140°SE
Pressure: 29.96"   Gusts: 24mph
Location:  27.5°N, 82.71°W
Report Text: KSRQ 231153Z 14012G21KT 10SM OVC011 23/22 A2996 RMK AO2 SLP146 60000 T02280217 10228 20217 55004
Loading
Personal Weather Stations






























Interactive Weather Map New forecast layout! Learn more

10-Day Weather Forecast

Advertisements
Track Severe Weather on mobile